sensor_id;sensor_type;location;lat;lon;timestamp;temperature;humidity
25991;DHT22;13779;-33.886;151.198;2023-01-05T00:02:20;20.00;99.90
25991;DHT22;13779;-33.886;151.198;2023-01-05T00:04:50;20.00;99.90
25991;DHT22;13779;-33.886;151.198;2023-01-05T00:07:21;20.00;99.90
25991;DHT22;13779;-33.886;151.198;2023-01-05T00:09:51;20.10;99.90
25991;DHT22;13779;-33.886;151.198;2023-01-05T00:12:22;20.00;99.90
25991;DHT22;13779;-33.886;151.198;2023-01-05T00:15:11;20.10;99.90
25991;DHT22;13779;-33.886;151.198;2023-01-05T00:17:59;20.10;99.90
25991;DHT22;13779;-33.886;151.198;2023-01-05T00:20:48;20.30;99.90
25991;DHT22;13779;-33.886;151.198;2023-01-05T00:23:36;20.40;99.90
25991;DHT22;13779;-33.886;151.198;2023-01-05T00:26:07;20.40;99.90
25991;DHT22;13779;-33.886;151.198;2023-01-05T00:28:37;20.40;99.90
25991;DHT22;13779;-33.886;151.198;2023-01-05T00:31:08;20.40;99.90
25991;DHT22;13779;-33.886;151.198;2023-01-05T00:33:38;20.50;99.90
25991;DHT22;13779;-33.886;151.198;2023-01-05T00:36:09;20.50;99.90
25991;DHT22;13779;-33.886;151.198;2023-01-05T00:38:43;20.50;99.90
25991;DHT22;13779;-33.886;151.198;2023-01-05T00:41:13;20.50;99.90
25991;DHT22;13779;-33.886;151.198;2023-01-05T00:43:44;20.50;99.90
25991;DHT22;13779;-33.886;151.198;2023-01-05T00:46:14;20.50;99.90
25991;DHT22;13779;-33.886;151.198;2023-01-05T00:48:45;20.50;99.90
25991;DHT22;13779;-33.886;151.198;2023-01-05T00:51:15;20.60;99.90
25991;DHT22;13779;-33.886;151.198;2023-01-05T00:53:47;20.60;99.90
25991;DHT22;13779;-33.886;151.198;2023-01-05T00:56:21;20.70;99.90
25991;DHT22;13779;-33.886;151.198;2023-01-05T00:58:54;20.70;99.90
25991;DHT22;13779;-33.886;151.198;2023-01-05T01:01:25;20.70;99.90
25991;DHT22;13779;-33.886;151.198;2023-01-05T01:03:56;20.80;99.90
25991;DHT22;13779;-33.886;151.198;2023-01-05T01:06:28;20.80;99.90
25991;DHT22;13779;-33.886;151.198;2023-01-05T01:08:59;20.80;99.90
25991;DHT22;13779;-33.886;151.198;2023-01-05T01:11:29;20.70;99.90
25991;DHT22;13779;-33.886;151.198;2023-01-05T01:14:00;20.70;99.90
25991;DHT22;13779;-33.886;151.198;2023-01-05T01:16:31;20.60;99.90
25991;DHT22;13779;-33.886;151.198;2023-01-05T01:19:02;20.60;99.90
25991;DHT22;13779;-33.886;151.198;2023-01-05T01:21:36;20.50;99.90
25991;DHT22;13779;-33.886;151.198;2023-01-05T01:24:06;20.50;99.90
25991;DHT22;13779;-33.886;151.198;2023-01-05T01:26:37;20.60;99.90
25991;DHT22;13779;-33.886;151.198;2023-01-05T01:29:08;20.60;99.90
25991;DHT22;13779;-33.886;151.198;2023-01-05T01:31:39;20.60;99.90
25991;DHT22;13779;-33.886;151.198;2023-01-05T01:34:09;20.70;99.90
25991;DHT22;13779;-33.886;151.198;2023-01-05T01:36:40;20.70;99.90
25991;DHT22;13779;-33.886;151.198;2023-01-05T01:39:11;20.80;99.90
25991;DHT22;13779;-33.886;151.198;2023-01-05T01:41:42;20.80;99.90
25991;DHT22;13779;-33.886;151.198;2023-01-05T01:50:09;20.70;99.90
25991;DHT22;13779;-33.886;151.198;2023-01-05T01:52:40;20.80;99.90
25991;DHT22;13779;-33.886;151.198;2023-01-05T01:55:13;20.80;99.90
25991;DHT22;13779;-33.886;151.198;2023-01-05T01:57:45;20.80;99.90
25991;DHT22;13779;-33.886;151.198;2023-01-05T02:00:17;20.80;99.90
25991;DHT22;13779;-33.886;151.198;2023-01-05T02:02:52;20.90;99.90
25991;DHT22;13779;-33.886;151.198;2023-01-05T02:05:27;21.10;99.90
25991;DHT22;13779;-33.886;151.198;2023-01-05T02:07:58;21.20;99.90
25991;DHT22;13779;-33.886;151.198;2023-01-05T02:13:07;21.30;99.90
25991;DHT22;13779;-33.886;151.198;2023-01-05T02:27:19;21.30;99.90
25991;DHT22;13779;-33.886;151.198;2023-01-05T02:33:15;21.40;99.90
25991;DHT22;13779;-33.886;151.198;2023-01-05T02:39:03;21.30;99.90
25991;DHT22;13779;-33.886;151.198;2023-01-05T02:41:38;21.20;99.90
25991;DHT22;13779;-33.886;151.198;2023-01-05T02:44:10;21.20;99.90
25991;DHT22;13779;-33.886;151.198;2023-01-05T02:46:45;21.20;99.90
25991;DHT22;13779;-33.886;151.198;2023-01-05T02:49:14;21.30;99.90
25991;DHT22;13779;-33.886;151.198;2023-01-05T02:51:48;21.30;99.90
25991;DHT22;13779;-33.886;151.198;2023-01-05T02:54:45;21.30;99.90
25991;DHT22;13779;-33.886;151.198;2023-01-05T02:57:21;21.40;99.90
25991;DHT22;13779;-33.886;151.198;2023-01-05T03:00:29;21.30;99.90
25991;DHT22;13779;-33.886;151.198;2023-01-05T03:03:08;21.20;99.90
25991;DHT22;13779;-33.886;151.198;2023-01-05T03:05:47;21.10;99.90
25991;DHT22;13779;-33.886;151.198;2023-01-05T03:08:18;21.10;99.90
25991;DHT22;13779;-33.886;151.198;2023-01-05T03:11:07;21.10;99.90
25991;DHT22;13779;-33.886;151.198;2023-01-05T03:16:38;21.30;99.90
25991;DHT22;13779;-33.886;151.198;2023-01-05T03:19:12;21.40;99.90
25991;DHT22;13779;-33.886;151.198;2023-01-05T03:22:10;21.50;99.90
25991;DHT22;13779;-33.886;151.198;2023-01-05T03:24:59;21.40;99.90
25991;DHT22;13779;-33.886;151.198;2023-01-05T03:27:49;21.30;99.90
25991;DHT22;13779;-33.886;151.198;2023-01-05T03:30:54;21.30;99.90
25991;DHT22;13779;-33.886;151.198;2023-01-05T03:33:50;21.30;99.90
25991;DHT22;13779;-33.886;151.198;2023-01-05T03:36:57;21.30;99.90
25991;DHT22;13779;-33.886;151.198;2023-01-05T03:39:30;21.40;99.90
25991;DHT22;13779;-33.886;151.198;2023-01-05T03:42:02;21.50;99.90
25991;DHT22;13779;-33.886;151.198;2023-01-05T03:44:35;21.60;99.90
25991;DHT22;13779;-33.886;151.198;2023-01-05T03:47:07;21.60;99.90
25991;DHT22;13779;-33.886;151.198;2023-01-05T03:49:37;21.50;99.90
25991;DHT22;13779;-33.886;151.198;2023-01-05T03:52:08;21.40;99.90
25991;DHT22;13779;-33.886;151.198;2023-01-05T03:54:38;21.20;99.90
25991;DHT22;13779;-33.886;151.198;2023-01-05T03:57:09;21.30;99.90
25991;DHT22;13779;-33.886;151.198;2023-01-05T03:59:40;21.30;99.90
25991;DHT22;13779;-33.886;151.198;2023-01-05T04:02:11;21.50;99.90
25991;DHT22;13779;-33.886;151.198;2023-01-05T04:04:44;21.50;99.90
25991;DHT22;13779;-33.886;151.198;2023-01-05T04:07:18;21.60;99.90
25991;DHT22;13779;-33.886;151.198;2023-01-05T04:09:48;21.50;99.90
25991;DHT22;13779;-33.886;151.198;2023-01-05T04:12:19;21.60;99.90
25991;DHT22;13779;-33.886;151.198;2023-01-05T04:14:49;21.60;99.90
25991;DHT22;13779;-33.886;151.198;2023-01-05T04:17:20;21.60;99.90
25991;DHT22;13779;-33.886;151.198;2023-01-05T04:19:50;21.60;99.90
25991;DHT22;13779;-33.886;151.198;2023-01-05T04:22:21;21.70;99.90
25991;DHT22;13779;-33.886;151.198;2023-01-05T04:24:54;21.70;99.90
25991;DHT22;13779;-33.886;151.198;2023-01-05T04:27:25;21.60;99.90
25991;DHT22;13779;-33.886;151.198;2023-01-05T04:29:55;21.50;99.90
25991;DHT22;13779;-33.886;151.198;2023-01-05T04:32:26;21.20;99.90
25991;DHT22;13779;-33.886;151.198;2023-01-05T04:34:56;21.20;99.90
25991;DHT22;13779;-33.886;151.198;2023-01-05T04:37:30;21.10;99.90
25991;DHT22;13779;-33.886;151.198;2023-01-05T04:40:01;20.90;99.90
25991;DHT22;13779;-33.886;151.198;2023-01-05T04:42:31;20.70;99.90
25991;DHT22;13779;-33.886;151.198;2023-01-05T04:45:02;20.60;99.90
25991;DHT22;13779;-33.886;151.198;2023-01-05T04:47:33;20.40;99.90
25991;DHT22;13779;-33.886;151.198;2023-01-05T04:50:04;20.40;99.90
25991;DHT22;13779;-33.886;151.198;2023-01-05T04:52:34;20.20;99.90
25991;DHT22;13779;-33.886;151.198;2023-01-05T04:55:05;20.10;99.90
25991;DHT22;13779;-33.886;151.198;2023-01-05T04:57:36;20.10;99.90
25991;DHT22;13779;-33.886;151.198;2023-01-05T05:00:07;20.10;99.90
25991;DHT22;13779;-33.886;151.198;2023-01-05T05:02:42;20.20;99.90
25991;DHT22;13779;-33.886;151.198;2023-01-05T05:05:13;20.20;99.90
25991;DHT22;13779;-33.886;151.198;2023-01-05T05:07:43;20.20;99.90
25991;DHT22;13779;-33.886;151.198;2023-01-05T05:10:14;20.30;99.90
25991;DHT22;13779;-33.886;151.198;2023-01-05T05:12:46;20.30;99.90
25991;DHT22;13779;-33.886;151.198;2023-01-05T05:15:17;20.30;99.90
25991;DHT22;13779;-33.886;151.198;2023-01-05T05:17:48;20.30;99.90
25991;DHT22;13779;-33.886;151.198;2023-01-05T05:20:18;20.30;99.90
25991;DHT22;13779;-33.886;151.198;2023-01-05T05:22:48;20.40;99.90
25991;DHT22;13779;-33.886;151.198;2023-01-05T05:25:19;20.30;99.90
25991;DHT22;13779;-33.886;151.198;2023-01-05T05:27:50;20.30;99.90
25991;DHT22;13779;-33.886;151.198;2023-01-05T05:30:21;20.20;99.90
25991;DHT22;13779;-33.886;151.198;2023-01-05T05:32:51;20.10;99.90
25991;DHT22;13779;-33.886;151.198;2023-01-05T05:35:22;20.10;99.90
25991;DHT22;13779;-33.886;151.198;2023-01-05T05:37:52;20.10;99.90
25991;DHT22;13779;-33.886;151.198;2023-01-05T05:40:23;20.00;99.90
25991;DHT22;13779;-33.886;151.198;2023-01-05T05:42:55;20.00;99.90
25991;DHT22;13779;-33.886;151.198;2023-01-05T05:45:25;19.90;99.90
25991;DHT22;13779;-33.886;151.198;2023-01-05T05:47:56;19.90;99.90
25991;DHT22;13779;-33.886;151.198;2023-01-05T05:50:27;19.80;99.90
25991;DHT22;13779;-33.886;151.198;2023-01-05T05:52:58;19.60;99.90
25991;DHT22;13779;-33.886;151.198;2023-01-05T05:55:28;19.40;99.90
25991;DHT22;13779;-33.886;151.198;2023-01-05T05:57:59;19.30;99.90
25991;DHT22;13779;-33.886;151.198;2023-01-05T06:00:29;19.20;99.90
25991;DHT22;13779;-33.886;151.198;2023-01-05T06:03:00;19.20;99.90
25991;DHT22;13779;-33.886;151.198;2023-01-05T06:05:30;19.10;99.90
25991;DHT22;13779;-33.886;151.198;2023-01-05T06:08:01;19.00;99.90
25991;DHT22;13779;-33.886;151.198;2023-01-05T06:10:31;19.00;99.90
25991;DHT22;13779;-33.886;151.198;2023-01-05T06:13:03;18.90;99.90
25991;DHT22;13779;-33.886;151.198;2023-01-05T06:15:33;18.80;99.90
25991;DHT22;13779;-33.886;151.198;2023-01-05T06:18:04;18.70;99.90
25991;DHT22;13779;-33.886;151.198;2023-01-05T06:20:35;18.70;99.90
25991;DHT22;13779;-33.886;151.198;2023-01-05T06:23:06;18.60;99.90
25991;DHT22;13779;-33.886;151.198;2023-01-05T06:25:36;18.50;99.90
25991;DHT22;13779;-33.886;151.198;2023-01-05T06:28:07;18.50;99.90
25991;DHT22;13779;-33.886;151.198;2023-01-05T06:30:40;18.50;99.90
25991;DHT22;13779;-33.886;151.198;2023-01-05T06:33:11;18.50;99.90
25991;DHT22;13779;-33.886;151.198;2023-01-05T06:35:42;18.60;99.90
25991;DHT22;13779;-33.886;151.198;2023-01-05T06:38:13;18.70;99.90
25991;DHT22;13779;-33.886;151.198;2023-01-05T06:40:46;18.80;99.90
25991;DHT22;13779;-33.886;151.198;2023-01-05T06:43:16;18.90;99.90
25991;DHT22;13779;-33.886;151.198;2023-01-05T06:45:47;18.90;99.90
25991;DHT22;13779;-33.886;151.198;2023-01-05T06:48:17;19.00;99.90
25991;DHT22;13779;-33.886;151.198;2023-01-05T06:50:47;19.10;99.90
25991;DHT22;13779;-33.886;151.198;2023-01-05T06:53:17;19.10;99.90
25991;DHT22;13779;-33.886;151.198;2023-01-05T06:55:48;19.10;99.90
25991;DHT22;13779;-33.886;151.198;2023-01-05T06:58:18;19.20;99.90
25991;DHT22;13779;-33.886;151.198;2023-01-05T07:00:48;19.20;99.90
25991;DHT22;13779;-33.886;151.198;2023-01-05T07:03:18;19.30;99.90
25991;DHT22;13779;-33.886;151.198;2023-01-05T07:05:49;19.40;99.90
25991;DHT22;13779;-33.886;151.198;2023-01-05T07:08:19;19.40;99.90
25991;DHT22;13779;-33.886;151.198;2023-01-05T07:10:49;19.50;99.90
25991;DHT22;13779;-33.886;151.198;2023-01-05T07:13:19;19.50;99.90
25991;DHT22;13779;-33.886;151.198;2023-01-05T07:15:52;19.50;99.90
25991;DHT22;13779;-33.886;151.198;2023-01-05T07:18:23;19.60;99.90
25991;DHT22;13779;-33.886;151.198;2023-01-05T07:20:53;19.70;99.90
25991;DHT22;13779;-33.886;151.198;2023-01-05T07:23:23;19.70;99.90
25991;DHT22;13779;-33.886;151.198;2023-01-05T07:25:53;19.70;99.90
25991;DHT22;13779;-33.886;151.198;2023-01-05T07:28:23;19.70;99.90
25991;DHT22;13779;-33.886;151.198;2023-01-05T07:30:53;19.70;99.90
25991;DHT22;13779;-33.886;151.198;2023-01-05T07:33:23;19.70;99.90
25991;DHT22;13779;-33.886;151.198;2023-01-05T07:35:54;19.70;99.90
25991;DHT22;13779;-33.886;151.198;2023-01-05T07:38:24;19.70;99.90
25991;DHT22;13779;-33.886;151.198;2023-01-05T07:40:58;19.70;99.90
25991;DHT22;13779;-33.886;151.198;2023-01-05T07:43:29;19.70;99.90
25991;DHT22;13779;-33.886;151.198;2023-01-05T07:46:01;19.70;99.90
25991;DHT22;13779;-33.886;151.198;2023-01-05T07:48:32;19.80;99.90
25991;DHT22;13779;-33.886;151.198;2023-01-05T07:51:04;19.80;99.90
25991;DHT22;13779;-33.886;151.198;2023-01-05T07:53:35;19.70;99.90
25991;DHT22;13779;-33.886;151.198;2023-01-05T07:56:12;19.80;99.90
25991;DHT22;13779;-33.886;151.198;2023-01-05T07:58:46;19.70;99.90
25991;DHT22;13779;-33.886;151.198;2023-01-05T08:01:17;19.70;99.90
25991;DHT22;13779;-33.886;151.198;2023-01-05T08:03:48;19.70;99.90
25991;DHT22;13779;-33.886;151.198;2023-01-05T08:06:19;19.70;99.90
25991;DHT22;13779;-33.886;151.198;2023-01-05T08:08:51;19.80;99.90
25991;DHT22;13779;-33.886;151.198;2023-01-05T08:11:21;19.70;99.90
25991;DHT22;13779;-33.886;151.198;2023-01-05T08:13:52;19.70;99.90
25991;DHT22;13779;-33.886;151.198;2023-01-05T08:16:30;19.60;99.90
25991;DHT22;13779;-33.886;151.198;2023-01-05T08:19:01;19.60;99.90
25991;DHT22;13779;-33.886;151.198;2023-01-05T08:21:37;19.60;99.90
25991;DHT22;13779;-33.886;151.198;2023-01-05T08:24:08;19.50;99.90
25991;DHT22;13779;-33.886;151.198;2023-01-05T08:26:38;19.50;99.90
25991;DHT22;13779;-33.886;151.198;2023-01-05T08:29:09;19.50;99.90
25991;DHT22;13779;-33.886;151.198;2023-01-05T08:31:43;19.50;99.90
25991;DHT22;13779;-33.886;151.198;2023-01-05T08:34:14;19.50;99.90
25991;DHT22;13779;-33.886;151.198;2023-01-05T08:36:44;19.50;99.90
25991;DHT22;13779;-33.886;151.198;2023-01-05T08:39:15;19.50;99.90
25991;DHT22;13779;-33.886;151.198;2023-01-05T08:41:45;19.50;99.90
25991;DHT22;13779;-33.886;151.198;2023-01-05T08:44:17;19.50;99.90
25991;DHT22;13779;-33.886;151.198;2023-01-05T08:46:47;19.50;99.90
25991;DHT22;13779;-33.886;151.198;2023-01-05T08:49:18;19.50;99.90
25991;DHT22;13779;-33.886;151.198;2023-01-05T08:51:49;19.50;99.90
25991;DHT22;13779;-33.886;151.198;2023-01-05T08:54:20;19.40;99.90
25991;DHT22;13779;-33.886;151.198;2023-01-05T08:56:50;19.50;99.90
25991;DHT22;13779;-33.886;151.198;2023-01-05T08:59:21;19.40;99.90
25991;DHT22;13779;-33.886;151.198;2023-01-05T09:01:52;19.40;99.90
25991;DHT22;13779;-33.886;151.198;2023-01-05T09:04:23;19.40;99.90
25991;DHT22;13779;-33.886;151.198;2023-01-05T09:06:56;19.40;99.90
25991;DHT22;13779;-33.886;151.198;2023-01-05T09:09:26;19.40;99.90
25991;DHT22;13779;-33.886;151.198;2023-01-05T09:11:57;19.40;99.90
25991;DHT22;13779;-33.886;151.198;2023-01-05T09:14:28;19.50;99.90
25991;DHT22;13779;-33.886;151.198;2023-01-05T09:16:58;19.50;99.90
25991;DHT22;13779;-33.886;151.198;2023-01-05T09:19:34;19.40;99.90
25991;DHT22;13779;-33.886;151.198;2023-01-05T09:22:05;19.40;99.90
25991;DHT22;13779;-33.886;151.198;2023-01-05T09:24:36;19.40;99.90
25991;DHT22;13779;-33.886;151.198;2023-01-05T09:27:06;19.40;99.90
25991;DHT22;13779;-33.886;151.198;2023-01-05T09:29:37;19.40;99.90
25991;DHT22;13779;-33.886;151.198;2023-01-05T09:32:08;19.40;99.90
25991;DHT22;13779;-33.886;151.198;2023-01-05T09:34:40;19.40;99.90
25991;DHT22;13779;-33.886;151.198;2023-01-05T09:37:11;19.40;99.90
25991;DHT22;13779;-33.886;151.198;2023-01-05T09:39:42;19.40;99.90
25991;DHT22;13779;-33.886;151.198;2023-01-05T09:42:16;19.30;99.90
25991;DHT22;13779;-33.886;151.198;2023-01-05T09:44:51;19.30;99.90
25991;DHT22;13779;-33.886;151.198;2023-01-05T09:47:35;19.30;99.90
25991;DHT22;13779;-33.886;151.198;2023-01-05T09:50:11;19.30;99.90
25991;DHT22;13779;-33.886;151.198;2023-01-05T09:52:48;19.30;99.90
25991;DHT22;13779;-33.886;151.198;2023-01-05T09:55:20;19.30;99.90
25991;DHT22;13779;-33.886;151.198;2023-01-05T09:58:07;19.40;99.90
25991;DHT22;13779;-33.886;151.198;2023-01-05T10:00:43;19.30;99.90
25991;DHT22;13779;-33.886;151.198;2023-01-05T10:03:20;19.30;99.90
25991;DHT22;13779;-33.886;151.198;2023-01-05T10:06:13;19.30;99.90
25991;DHT22;13779;-33.886;151.198;2023-01-05T10:08:47;19.30;99.90
25991;DHT22;13779;-33.886;151.198;2023-01-05T10:11:33;19.20;99.90
25991;DHT22;13779;-33.886;151.198;2023-01-05T10:14:39;19.20;99.90
25991;DHT22;13779;-33.886;151.198;2023-01-05T10:17:13;19.30;99.90
25991;DHT22;13779;-33.886;151.198;2023-01-05T10:23:30;19.30;99.90
25991;DHT22;13779;-33.886;151.198;2023-01-05T10:26:18;19.30;99.90
25991;DHT22;13779;-33.886;151.198;2023-01-05T10:29:01;19.40;99.90
25991;DHT22;13779;-33.886;151.198;2023-01-05T10:34:22;19.30;99.90
25991;DHT22;13779;-33.886;151.198;2023-01-05T10:36:57;19.20;99.90
25991;DHT22;13779;-33.886;151.198;2023-01-05T10:43:09;19.20;99.90
25991;DHT22;13779;-33.886;151.198;2023-01-05T10:45:17;19.20;99.90
25991;DHT22;13779;-33.886;151.198;2023-01-05T10:47:49;19.30;99.90
25991;DHT22;13779;-33.886;151.198;2023-01-05T10:50:37;19.30;99.90
25991;DHT22;13779;-33.886;151.198;2023-01-05T10:56:22;19.20;99.90
25991;DHT22;13779;-33.886;151.198;2023-01-05T10:59:19;19.20;99.90
25991;DHT22;13779;-33.886;151.198;2023-01-05T11:01:50;19.20;99.90
25991;DHT22;13779;-33.886;151.198;2023-01-05T11:04:22;19.30;99.90
25991;DHT22;13779;-33.886;151.198;2023-01-05T11:07:05;19.20;99.90
25991;DHT22;13779;-33.886;151.198;2023-01-05T11:09:46;19.30;99.90
25991;DHT22;13779;-33.886;151.198;2023-01-05T11:12:22;19.30;99.90
25991;DHT22;13779;-33.886;151.198;2023-01-05T11:14:56;19.20;99.90
25991;DHT22;13779;-33.886;151.198;2023-01-05T11:17:27;19.10;99.90
25991;DHT22;13779;-33.886;151.198;2023-01-05T11:19:58;19.10;99.90
25991;DHT22;13779;-33.886;151.198;2023-01-05T11:22:36;19.10;99.90
25991;DHT22;13779;-33.886;151.198;2023-01-05T11:25:29;19.10;99.90
25991;DHT22;13779;-33.886;151.198;2023-01-05T11:28:14;19.10;99.90
25991;DHT22;13779;-33.886;151.198;2023-01-05T11:31:02;19.10;99.90
25991;DHT22;13779;-33.886;151.198;2023-01-05T11:33:35;19.00;99.90
25991;DHT22;13779;-33.886;151.198;2023-01-05T11:36:07;19.10;99.90
25991;DHT22;13779;-33.886;151.198;2023-01-05T11:38:42;19.10;99.90
25991;DHT22;13779;-33.886;151.198;2023-01-05T11:41:12;19.10;99.90
25991;DHT22;13779;-33.886;151.198;2023-01-05T11:43:46;19.10;99.90
25991;DHT22;13779;-33.886;151.198;2023-01-05T11:46:16;19.20;99.90
25991;DHT22;13779;-33.886;151.198;2023-01-05T11:48:55;19.10;99.90
25991;DHT22;13779;-33.886;151.198;2023-01-05T11:51:34;19.10;99.90
25991;DHT22;13779;-33.886;151.198;2023-01-05T11:54:19;18.90;99.90
25991;DHT22;13779;-33.886;151.198;2023-01-05T11:57:16;18.90;99.90
25991;DHT22;13779;-33.886;151.198;2023-01-05T11:59:46;18.90;99.90
25991;DHT22;13779;-33.886;151.198;2023-01-05T12:02:50;18.90;99.90
25991;DHT22;13779;-33.886;151.198;2023-01-05T12:05:48;18.80;99.90
25991;DHT22;13779;-33.886;151.198;2023-01-05T12:08:29;18.80;99.90
25991;DHT22;13779;-33.886;151.198;2023-01-05T12:11:09;18.70;99.90
25991;DHT22;13779;-33.886;151.198;2023-01-05T12:13:48;18.70;99.90
25991;DHT22;13779;-33.886;151.198;2023-01-05T12:30:30;18.70;99.90
25991;DHT22;13779;-33.886;151.198;2023-01-05T12:33:43;18.70;99.90
25991;DHT22;13779;-33.886;151.198;2023-01-05T12:39:34;18.70;99.90
25991;DHT22;13779;-33.886;151.198;2023-01-05T12:42:44;18.60;99.90
25991;DHT22;13779;-33.886;151.198;2023-01-05T12:48:04;18.60;99.90
25991;DHT22;13779;-33.886;151.198;2023-01-05T12:51:03;18.50;99.90
25991;DHT22;13779;-33.886;151.198;2023-01-05T12:53:52;18.50;99.90
25991;DHT22;13779;-33.886;151.198;2023-01-05T13:13:43;18.40;99.90
25991;DHT22;13779;-33.886;151.198;2023-01-05T13:16:33;18.40;99.90
25991;DHT22;13779;-33.886;151.198;2023-01-05T13:19:11;18.40;99.90
25991;DHT22;13779;-33.886;151.198;2023-01-05T13:21:44;18.40;99.90
25991;DHT22;13779;-33.886;151.198;2023-01-05T13:26:56;18.30;99.90
25991;DHT22;13779;-33.886;151.198;2023-01-05T13:29:39;18.40;99.90
25991;DHT22;13779;-33.886;151.198;2023-01-05T13:35:03;18.30;99.90
25991;DHT22;13779;-33.886;151.198;2023-01-05T13:38:09;18.30;99.90
25991;DHT22;13779;-33.886;151.198;2023-01-05T13:41:11;18.30;99.90
25991;DHT22;13779;-33.886;151.198;2023-01-05T13:46:26;18.30;99.90
25991;DHT22;13779;-33.886;151.198;2023-01-05T13:49:31;18.30;99.90
25991;DHT22;13779;-33.886;151.198;2023-01-05T13:55:03;18.40;99.90
25991;DHT22;13779;-33.886;151.198;2023-01-05T13:57:45;18.30;99.90
25991;DHT22;13779;-33.886;151.198;2023-01-05T14:00:46;18.30;99.90
25991;DHT22;13779;-33.886;151.198;2023-01-05T14:04:14;18.30;99.90
25991;DHT22;13779;-33.886;151.198;2023-01-05T14:06:31;18.30;99.90
25991;DHT22;13779;-33.886;151.198;2023-01-05T14:17:53;18.20;99.90
25991;DHT22;13779;-33.886;151.198;2023-01-05T14:20:33;18.20;99.90
25991;DHT22;13779;-33.886;151.198;2023-01-05T14:26:04;18.20;99.90
25991;DHT22;13779;-33.886;151.198;2023-01-05T14:28:39;18.10;99.90
25991;DHT22;13779;-33.886;151.198;2023-01-05T14:34:35;18.10;99.90
25991;DHT22;13779;-33.886;151.198;2023-01-05T14:37:02;18.10;99.90
25991;DHT22;13779;-33.886;151.198;2023-01-05T14:39:43;18.00;99.90
25991;DHT22;13779;-33.886;151.198;2023-01-05T14:42:15;18.00;99.90
25991;DHT22;13779;-33.886;151.198;2023-01-05T14:44:50;18.00;99.90
25991;DHT22;13779;-33.886;151.198;2023-01-05T14:47:42;18.00;99.90
25991;DHT22;13779;-33.886;151.198;2023-01-05T14:50:36;18.10;99.90
25991;DHT22;13779;-33.886;151.198;2023-01-05T14:53:37;18.00;99.90
25991;DHT22;13779;-33.886;151.198;2023-01-05T15:04:31;18.10;99.90
25991;DHT22;13779;-33.886;151.198;2023-01-05T15:07:16;18.10;99.90
25991;DHT22;13779;-33.886;151.198;2023-01-05T15:30:12;18.10;99.90
25991;DHT22;13779;-33.886;151.198;2023-01-05T15:32:47;18.10;99.90
25991;DHT22;13779;-33.886;151.198;2023-01-05T15:35:20;18.10;99.90
25991;DHT22;13779;-33.886;151.198;2023-01-05T15:37:51;18.10;99.90
25991;DHT22;13779;-33.886;151.198;2023-01-05T15:42:58;18.10;99.90
25991;DHT22;13779;-33.886;151.198;2023-01-05T15:45:31;18.10;99.90
25991;DHT22;13779;-33.886;151.198;2023-01-05T15:48:20;18.10;99.90
25991;DHT22;13779;-33.886;151.198;2023-01-05T15:50:54;18.10;99.90
25991;DHT22;13779;-33.886;151.198;2023-01-05T15:53:37;18.10;99.90
25991;DHT22;13779;-33.886;151.198;2023-01-05T15:59:01;18.10;99.90
25991;DHT22;13779;-33.886;151.198;2023-01-05T16:01:37;18.10;99.90
25991;DHT22;13779;-33.886;151.198;2023-01-05T16:04:12;18.10;99.90
25991;DHT22;13779;-33.886;151.198;2023-01-05T16:06:48;18.10;99.90
25991;DHT22;13779;-33.886;151.198;2023-01-05T16:09:25;18.10;99.90
25991;DHT22;13779;-33.886;151.198;2023-01-05T16:14:42;18.20;99.90
25991;DHT22;13779;-33.886;151.198;2023-01-05T16:17:19;18.20;99.90
25991;DHT22;13779;-33.886;151.198;2023-01-05T16:20:14;18.20;99.90
25991;DHT22;13779;-33.886;151.198;2023-01-05T16:25:25;18.20;99.90
25991;DHT22;13779;-33.886;151.198;2023-01-05T16:28:01;18.10;99.90
25991;DHT22;13779;-33.886;151.198;2023-01-05T16:30:37;18.20;99.90
25991;DHT22;13779;-33.886;151.198;2023-01-05T16:38:28;18.20;99.90
25991;DHT22;13779;-33.886;151.198;2023-01-05T16:44:00;18.10;99.90
25991;DHT22;13779;-33.886;151.198;2023-01-05T16:46:35;18.10;99.90
25991;DHT22;13779;-33.886;151.198;2023-01-05T16:49:26;18.10;99.90
25991;DHT22;13779;-33.886;151.198;2023-01-05T16:52:03;18.10;99.90
25991;DHT22;13779;-33.886;151.198;2023-01-05T16:54:40;18.10;99.90
25991;DHT22;13779;-33.886;151.198;2023-01-05T16:57:32;18.10;99.90
25991;DHT22;13779;-33.886;151.198;2023-01-05T17:03:31;18.10;99.90
25991;DHT22;13779;-33.886;151.198;2023-01-05T17:06:01;18.00;99.90
25991;DHT22;13779;-33.886;151.198;2023-01-05T17:08:33;18.00;99.90
25991;DHT22;13779;-33.886;151.198;2023-01-05T17:11:08;17.90;99.90
25991;DHT22;13779;-33.886;151.198;2023-01-05T17:13:53;17.90;99.90
25991;DHT22;13779;-33.886;151.198;2023-01-05T17:16:24;17.90;99.90
25991;DHT22;13779;-33.886;151.198;2023-01-05T17:18:54;17.90;99.90
25991;DHT22;13779;-33.886;151.198;2023-01-05T17:21:27;17.90;99.90
25991;DHT22;13779;-33.886;151.198;2023-01-05T17:24:00;17.90;99.90
25991;DHT22;13779;-33.886;151.198;2023-01-05T17:26:35;17.90;99.90
25991;DHT22;13779;-33.886;151.198;2023-01-05T17:29:09;17.90;99.90
25991;DHT22;13779;-33.886;151.198;2023-01-05T17:31:43;17.90;99.90
25991;DHT22;13779;-33.886;151.198;2023-01-05T17:34:14;18.00;99.90
25991;DHT22;13779;-33.886;151.198;2023-01-05T17:36:45;18.00;99.90
25991;DHT22;13779;-33.886;151.198;2023-01-05T17:39:18;17.90;99.90
25991;DHT22;13779;-33.886;151.198;2023-01-05T17:41:48;17.90;99.90
25991;DHT22;13779;-33.886;151.198;2023-01-05T17:44:19;17.90;99.90
25991;DHT22;13779;-33.886;151.198;2023-01-05T17:46:50;17.80;99.90
25991;DHT22;13779;-33.886;151.198;2023-01-05T17:49:21;17.90;99.90
25991;DHT22;13779;-33.886;151.198;2023-01-05T17:51:52;17.90;99.90
25991;DHT22;13779;-33.886;151.198;2023-01-05T17:54:23;17.90;99.90
25991;DHT22;13779;-33.886;151.198;2023-01-05T17:56:53;17.90;99.90
25991;DHT22;13779;-33.886;151.198;2023-01-05T17:59:24;17.90;99.90
25991;DHT22;13779;-33.886;151.198;2023-01-05T18:01:56;17.90;99.90
25991;DHT22;13779;-33.886;151.198;2023-01-05T18:04:27;17.90;99.90
25991;DHT22;13779;-33.886;151.198;2023-01-05T18:06:58;17.90;99.90
25991;DHT22;13779;-33.886;151.198;2023-01-05T18:09:30;17.80;99.90
25991;DHT22;13779;-33.886;151.198;2023-01-05T18:12:02;17.90;99.90
25991;DHT22;13779;-33.886;151.198;2023-01-05T18:14:33;17.90;99.90